Time;durP1;ratioP1;P1;durP2;ratioP2;P2;SDS_P1;SDS_P2;PMS_P1;PMS_P2;Temp;Humidity;BMP_temperature;BMP_pressure;BME280_temperature;BME280_humidity;BME280_pressure;Samples;Min_cycle;Max_cycle;Signal;HPM_P1;HPM_P2
2020/12/18 00:02:23;;;;;;;7.88;4.45;;;;;;;;;;5093869;28;20204;-63
2020/12/18 00:04:49;;;;;;;5.72;3.55;;;;;;;;;;5093836;28;20204;-64
2020/12/18 00:07:18;;;;;;;6.10;3.60;;;;;;;;;;5093350;28;20208;-63
2020/12/18 00:09:45;;;;;;;4.03;3.60;;;;;;;;;;5093708;28;20212;-63
2020/12/18 00:12:12;;;;;;;6.28;2.75;;;;;;;;;;5093372;28;20363;-63
2020/12/18 00:14:38;;;;;;;3.70;3.40;;;;;;;;;;5093300;28;20199;-62
2020/12/18 00:17:06;;;;;;;3.47;2.53;;;;;;;;;;5093574;28;20204;-63
2020/12/18 00:19:33;;;;;;;3.63;3.05;;;;;;;;;;5093790;28;20281;-63
2020/12/18 00:22:00;;;;;;;5.65;3.97;;;;;;;;;;5093682;28;20220;-62
2020/12/18 00:24:27;;;;;;;4.72;3.60;;;;;;;;;;5097948;28;20575;-62
2020/12/18 00:26:54;;;;;;;4.40;3.40;;;;;;;;;;5097855;28;20196;-62
2020/12/18 00:29:20;;;;;;;3.80;3.50;;;;;;;;;;5097441;28;20231;-63
2020/12/18 00:31:47;;;;;;;5.43;3.38;;;;;;;;;;5097665;28;20220;-63
2020/12/18 00:34:15;;;;;;;9.85;3.72;;;;;;;;;;5097654;28;20254;-63
2020/12/18 00:36:42;;;;;;;6.13;3.28;;;;;;;;;;5097555;28;20222;-62
2020/12/18 00:39:08;;;;;;;5.53;3.55;;;;;;;;;;5097478;28;20196;-63
2020/12/18 00:41:35;;;;;;;3.65;3.33;;;;;;;;;;5097452;28;20224;-62
2020/12/18 00:44:02;;;;;;;4.13;3.35;;;;;;;;;;5097152;28;20749;-63
2020/12/18 00:46:29;;;;;;;5.75;3.50;;;;;;;;;;5097606;28;20200;-62
2020/12/18 00:48:55;;;;;;;4.80;3.35;;;;;;;;;;5097080;28;20219;-63
2020/12/18 00:51:23;;;;;;;6.57;2.97;;;;;;;;;;5097243;28;20220;-64
2020/12/18 00:53:50;;;;;;;3.60;3.30;;;;;;;;;;5097123;28;20200;-63
2020/12/18 00:56:16;;;;;;;4.53;3.13;;;;;;;;;;5097015;28;20208;-63
2020/12/18 00:58:44;;;;;;;5.65;3.65;;;;;;;;;;5097033;28;20200;-63
2020/12/18 01:01:11;;;;;;;7.95;4.05;;;;;;;;;;5097118;28;20219;-62
2020/12/18 01:03:38;;;;;;;6.63;4.25;;;;;;;;;;5097749;28;20200;-63
2020/12/18 01:06:08;;;;;;;7.88;3.38;;;;;;;;;;5097012;28;20222;-62
2020/12/18 01:08:36;;;;;;;4.03;3.55;;;;;;;;;;5097620;28;20209;-63
2020/12/18 01:11:04;;;;;;;4.20;3.65;;;;;;;;;;5097093;28;20232;-63
2020/12/18 01:13:30;;;;;;;6.10;3.67;;;;;;;;;;5097274;28;20204;-63
2020/12/18 01:15:57;;;;;;;13.82;3.95;;;;;;;;;;5097150;28;20200;-63
2020/12/18 01:18:24;;;;;;;4.60;3.63;;;;;;;;;;5096941;28;20192;-63
2020/12/18 01:20:51;;;;;;;5.78;3.50;;;;;;;;;;5096709;28;20307;-63
2020/12/18 01:23:18;;;;;;;4.28;3.35;;;;;;;;;;5096915;28;20279;-63
2020/12/18 01:25:46;;;;;;;5.32;3.40;;;;;;;;;;5096571;28;20207;-63
2020/12/18 01:28:13;;;;;;;6.18;3.50;;;;;;;;;;5097148;28;20221;-63
2020/12/18 01:30:39;;;;;;;3.25;2.95;;;;;;;;;;5096760;28;20227;-62
2020/12/18 01:33:06;;;;;;;3.88;3.42;;;;;;;;;;5096797;28;20227;-62
2020/12/18 01:35:33;;;;;;;4.20;3.38;;;;;;;;;;5098507;28;20559;-63
2020/12/18 01:38:00;;;;;;;8.02;3.53;;;;;;;;;;5098763;28;20204;-63
2020/12/18 01:40:27;;;;;;;9.25;3.35;;;;;;;;;;5100454;28;20220;-62
2020/12/18 01:42:54;;;;;;;5.00;2.90;;;;;;;;;;5102543;28;20204;-63
2020/12/18 01:45:21;;;;;;;3.60;3.30;;;;;;;;;;5101495;28;20196;-63
2020/12/18 01:47:48;;;;;;;3.85;3.38;;;;;;;;;;5101490;28;20221;-63
2020/12/18 01:50:15;;;;;;;7.63;3.40;;;;;;;;;;5101189;28;20289;-62
2020/12/18 01:52:42;;;;;;;5.50;3.20;;;;;;;;;;5100678;28;20575;-63
2020/12/18 01:55:09;;;;;;;5.40;3.40;;;;;;;;;;5100552;28;20226;-64
2020/12/18 01:57:37;;;;;;;5.75;3.60;;;;;;;;;;5099085;28;20197;-64
2020/12/18 02:00:06;;;;;;;4.93;3.30;;;;;;;;;;5101105;28;20711;-63
2020/12/18 02:02:33;;;;;;;3.90;3.10;;;;;;;;;;5102268;28;20200;-63
2020/12/18 02:04:59;;;;;;;6.20;4.18;;;;;;;;;;5102274;28;20621;-63
2020/12/18 02:07:28;;;;;;;6.60;3.60;;;;;;;;;;5099498;28;20605;-63
2020/12/18 02:09:55;;;;;;;5.85;3.17;;;;;;;;;;5099417;28;20219;-64
2020/12/18 02:12:22;;;;;;;5.88;3.75;;;;;;;;;;5100570;28;20200;-63
2020/12/18 02:14:49;;;;;;;3.03;2.72;;;;;;;;;;5100681;28;20211;-64
2020/12/18 02:17:17;;;;;;;5.63;3.97;;;;;;;;;;5100160;28;20200;-64
2020/12/18 02:19:44;;;;;;;4.80;3.88;;;;;;;;;;5101194;28;20226;-62
2020/12/18 02:22:11;;;;;;;4.15;3.45;;;;;;;;;;5101736;28;20206;-63
2020/12/18 02:24:39;;;;;;;7.30;3.55;;;;;;;;;;5100776;28;20208;-63
2020/12/18 02:27:08;;;;;;;4.47;4.03;;;;;;;;;;5099154;28;20201;-63
2020/12/18 02:29:34;;;;;;;4.30;3.90;;;;;;;;;;5098466;28;20220;-63
2020/12/18 02:32:02;;;;;;;4.50;3.60;;;;;;;;;;5097848;28;20289;-62
2020/12/18 02:34:29;;;;;;;6.07;3.90;;;;;;;;;;5098158;28;20200;-63
2020/12/18 02:36:55;;;;;;;4.95;4.05;;;;;;;;;;5098031;28;20204;-63
2020/12/18 02:39:22;;;;;;;6.18;3.92;;;;;;;;;;5097455;28;20729;-63
2020/12/18 02:41:49;;;;;;;4.50;4.10;;;;;;;;;;5097958;28;20220;-63
2020/12/18 02:44:16;;;;;;;5.45;3.60;;;;;;;;;;5098279;28;20215;-63
2020/12/18 02:46:43;;;;;;;4.57;4.00;;;;;;;;;;5097884;28;20208;-64
2020/12/18 02:49:10;;;;;;;5.07;3.65;;;;;;;;;;5097151;28;20212;-63
2020/12/18 02:51:37;;;;;;;4.85;3.42;;;;;;;;;;5095626;28;20224;-62
2020/12/18 02:54:03;;;;;;;8.20;3.65;;;;;;;;;;5095032;28;20208;-63
2020/12/18 02:56:30;;;;;;;10.23;4.30;;;;;;;;;;5094975;28;20201;-62
2020/12/18 02:58:57;;;;;;;4.13;3.72;;;;;;;;;;5095424;28;20204;-63
2020/12/18 03:01:24;;;;;;;5.40;3.78;;;;;;;;;;5095957;28;20665;-62
2020/12/18 03:03:51;;;;;;;4.97;3.42;;;;;;;;;;5095090;28;20197;-63
2020/12/18 03:06:18;;;;;;;6.20;3.80;;;;;;;;;;5094952;28;20269;-62
2020/12/18 03:08:45;;;;;;;5.05;4.15;;;;;;;;;;5094857;28;20220;-62
2020/12/18 03:11:12;;;;;;;5.13;4.40;;;;;;;;;;5095252;28;20261;-63
2020/12/18 03:13:38;;;;;;;10.40;4.00;;;;;;;;;;5095374;28;20197;-62
2020/12/18 03:16:05;;;;;;;6.78;4.15;;;;;;;;;;5095015;28;20200;-63
2020/12/18 03:18:33;;;;;;;5.63;4.28;;;;;;;;;;5095279;28;20246;-62
2020/12/18 03:21:00;;;;;;;5.00;4.03;;;;;;;;;;5094826;28;20224;-63
2020/12/18 03:23:26;;;;;;;6.38;4.15;;;;;;;;;;5094643;28;20200;-62
2020/12/18 03:25:53;;;;;;;4.72;4.32;;;;;;;;;;5094769;28;20641;-62
2020/12/18 03:28:20;;;;;;;7.15;4.60;;;;;;;;;;5094613;28;20680;-62
2020/12/18 03:30:46;;;;;;;6.60;4.15;;;;;;;;;;5094243;28;20224;-63
2020/12/18 03:33:13;;;;;;;5.30;4.20;;;;;;;;;;5094932;28;20204;-62
2020/12/18 03:35:41;;;;;;;9.27;4.85;;;;;;;;;;5095255;28;20197;-63
2020/12/18 03:38:08;;;;;;;7.57;4.20;;;;;;;;;;5094306;28;20200;-62
2020/12/18 03:40:34;;;;;;;6.65;4.57;;;;;;;;;;5093710;28;20220;-62
2020/12/18 03:43:01;;;;;;;6.43;4.93;;;;;;;;;;5093944;28;20200;-63
2020/12/18 03:45:28;;;;;;;5.57;4.35;;;;;;;;;;5094021;28;20200;-62
2020/12/18 03:47:54;;;;;;;5.47;4.43;;;;;;;;;;5093797;28;20580;-64
2020/12/18 03:50:21;;;;;;;6.13;4.45;;;;;;;;;;5093445;28;20270;-62
2020/12/18 03:52:49;;;;;;;5.72;4.80;;;;;;;;;;5093532;28;20204;-62
2020/12/18 03:55:16;;;;;;;6.50;4.85;;;;;;;;;;5093664;28;20204;-62
2020/12/18 03:57:42;;;;;;;4.82;4.30;;;;;;;;;;5092773;28;20245;-62
2020/12/18 04:00:09;;;;;;;5.13;4.43;;;;;;;;;;5093639;28;20261;-63
2020/12/18 04:02:36;;;;;;;6.18;4.93;;;;;;;;;;5093297;28;20729;-63
2020/12/18 04:07:28;;;;;;;7.72;5.90;;;;;;;;;;5111823;27;21120;-63
2020/12/18 04:09:55;;;;;;;9.27;5.45;;;;;;;;;;5111206;28;20249;-63
2020/12/18 04:12:21;;;;;;;8.25;5.50;;;;;;;;;;5110880;28;20733;-62
2020/12/18 04:14:48;;;;;;;7.10;5.75;;;;;;;;;;5111014;28;20245;-63
2020/12/18 04:17:15;;;;;;;7.05;5.30;;;;;;;;;;5111226;28;20196;-63
2020/12/18 04:19:42;;;;;;;6.70;5.63;;;;;;;;;;5113076;28;20200;-63
2020/12/18 04:22:08;;;;;;;8.32;4.60;;;;;;;;;;5111518;28;20200;-64
2020/12/18 04:24:36;;;;;;;7.82;5.50;;;;;;;;;;5111660;28;20208;-63
2020/12/18 04:27:03;;;;;;;6.70;5.85;;;;;;;;;;5111802;28;20215;-64
2020/12/18 04:29:29;;;;;;;8.75;5.32;;;;;;;;;;5111595;28;20200;-63
2020/12/18 04:31:56;;;;;;;7.15;5.63;;;;;;;;;;5111316;28;20220;-63
2020/12/18 04:34:23;;;;;;;6.05;5.15;;;;;;;;;;5111201;28;20245;-63
2020/12/18 04:36:50;;;;;;;8.02;5.85;;;;;;;;;;5111194;28;20200;-62
2020/12/18 04:39:16;;;;;;;7.32;6.03;;;;;;;;;;5110943;28;20200;-63
2020/12/18 04:41:44;;;;;;;6.38;5.70;;;;;;;;;;5110386;28;20231;-62
2020/12/18 04:44:11;;;;;;;6.57;5.70;;;;;;;;;;5110766;28;20254;-63
2020/12/18 04:46:39;;;;;;;7.15;5.95;;;;;;;;;;5110964;28;20239;-64
2020/12/18 04:49:05;;;;;;;7.03;6.25;;;;;;;;;;5111159;28;20257;-63
2020/12/18 04:51:32;;;;;;;7.38;5.45;;;;;;;;;;5110770;28;20585;-62
2020/12/18 04:54:01;;;;;;;9.50;6.40;;;;;;;;;;5111845;28;20206;-63
2020/12/18 04:56:28;;;;;;;6.50;5.07;;;;;;;;;;5112876;28;20223;-62
2020/12/18 04:58:56;;;;;;;6.60;5.10;;;;;;;;;;5112230;28;20200;-62
2020/12/18 05:01:24;;;;;;;7.30;6.32;;;;;;;;;;5112702;28;20220;-62
2020/12/18 05:03:50;;;;;;;7.60;5.30;;;;;;;;;;5111590;28;20531;-62
2020/12/18 05:06:17;;;;;;;10.02;4.70;;;;;;;;;;5110836;28;20707;-62
2020/12/18 05:08:44;;;;;;;6.93;4.65;;;;;;;;;;5110265;28;20207;-63
2020/12/18 05:11:17;;;;;;;6.28;5.00;;;;;;;;;;5110098;28;20273;-61
2020/12/18 05:13:44;;;;;;;8.50;5.38;;;;;;;;;;5109989;28;20233;-62
2020/12/18 05:16:12;;;;;;;8.85;5.47;;;;;;;;;;5109682;28;20287;-62
2020/12/18 05:18:39;;;;;;;7.60;5.65;;;;;;;;;;5097241;28;20690;-62
2020/12/18 05:21:06;;;;;;;7.65;5.78;;;;;;;;;;5096195;28;20216;-63
2020/12/18 05:23:36;;;;;;;10.07;5.90;;;;;;;;;;5096879;28;20204;-63
2020/12/18 05:26:04;;;;;;;11.55;5.85;;;;;;;;;;5096550;28;20743;-62
2020/12/18 05:28:36;;;;;;;5.43;4.82;;;;;;;;;;5096735;28;20200;-63
2020/12/18 05:31:03;;;;;;;7.05;5.50;;;;;;;;;;5096798;28;20225;-62
2020/12/18 05:33:31;;;;;;;7.28;5.55;;;;;;;;;;5097149;28;20200;-64
2020/12/18 05:35:58;;;;;;;6.60;4.68;;;;;;;;;;5097432;28;20200;-62
2020/12/18 05:38:24;;;;;;;6.50;5.47;;;;;;;;;;5096520;28;20250;-61
2020/12/18 05:40:51;;;;;;;9.13;5.25;;;;;;;;;;5096805;28;20235;-62
2020/12/18 05:43:18;;;;;;;6.32;4.85;;;;;;;;;;5097036;28;20207;-62
2020/12/18 05:45:45;;;;;;;6.20;5.07;;;;;;;;;;5096482;28;20587;-62
2020/12/18 05:48:15;;;;;;;7.60;5.00;;;;;;;;;;5096315;28;20208;-62
2020/12/18 05:50:43;;;;;;;5.97;5.20;;;;;;;;;;5096086;28;20307;-62
2020/12/18 05:53:12;;;;;;;12.32;5.90;;;;;;;;;;5095609;28;20205;-63
2020/12/18 05:55:39;;;;;;;6.10;5.00;;;;;;;;;;5095835;28;20196;-63
2020/12/18 05:58:05;;;;;;;5.40;4.55;;;;;;;;;;5096295;28;20249;-62
2020/12/18 06:00:37;;;;;;;6.45;5.70;;;;;;;;;;5095637;28;20217;-63
2020/12/18 06:03:08;;;;;;;5.55;4.93;;;;;;;;;;5096072;28;20188;-63
2020/12/18 06:05:37;;;;;;;9.35;5.28;;;;;;;;;;5096405;28;20223;-62
2020/12/18 06:08:06;;;;;;;10.32;7.15;;;;;;;;;;5098017;28;20253;-63
2020/12/18 06:10:34;;;;;;;7.68;5.60;;;;;;;;;;5097655;28;20727;-62
2020/12/18 06:13:01;;;;;;;6.90;4.85;;;;;;;;;;5096844;28;20204;-62
2020/12/18 06:15:28;;;;;;;6.95;6.18;;;;;;;;;;5096492;28;20222;-62
2020/12/18 06:17:55;;;;;;;8.60;6.10;;;;;;;;;;5095720;28;20200;-63
2020/12/18 06:20:22;;;;;;;9.60;7.10;;;;;;;;;;5095211;28;20224;-63
2020/12/18 06:22:59;;;;;;;9.50;5.68;;;;;;;;;;5096053;28;20205;-62
2020/12/18 06:25:26;;;;;;;15.48;6.45;;;;;;;;;;5095828;28;20184;-63
2020/12/18 06:27:55;;;;;;;9.38;6.50;;;;;;;;;;5095359;28;20204;-62
2020/12/18 06:30:22;;;;;;;12.32;7.15;;;;;;;;;;5094098;28;20231;-63
2020/12/18 06:32:49;;;;;;;9.68;6.05;;;;;;;;;;5095241;28;20614;-63
2020/12/18 06:35:29;;;;;;;11.85;6.30;;;;;;;;;;5095153;28;20226;-62
2020/12/18 06:37:55;;;;;;;9.57;6.10;;;;;;;;;;5095406;28;20180;-63
2020/12/18 06:40:30;;;;;;;9.63;7.28;;;;;;;;;;5095009;28;20228;-63
2020/12/18 06:42:58;;;;;;;7.68;6.88;;;;;;;;;;5095068;28;20667;-62
2020/12/18 06:45:25;;;;;;;6.95;6.25;;;;;;;;;;5095281;28;20205;-62
2020/12/18 06:47:53;;;;;;;8.18;7.25;;;;;;;;;;5095385;28;20200;-63
2020/12/18 06:50:20;;;;;;;10.70;6.50;;;;;;;;;;5095357;28;20228;-62
2020/12/18 06:52:50;;;;;;;9.93;6.93;;;;;;;;;;5094988;28;20207;-63
2020/12/18 06:55:33;;;;;;;7.60;6.65;;;;;;;;;;5095306;28;20222;-63
2020/12/18 06:58:09;;;;;;;10.32;6.50;;;;;;;;;;5095454;28;20199;-63
2020/12/18 07:00:37;;;;;;;10.15;7.32;;;;;;;;;;5094743;28;20564;-61
2020/12/18 07:03:04;;;;;;;8.48;6.80;;;;;;;;;;5094703;28;20200;-63
2020/12/18 07:05:32;;;;;;;7.20;6.15;;;;;;;;;;5094427;28;20273;-62
2020/12/18 07:07:59;;;;;;;9.00;6.72;;;;;;;;;;5095287;28;20188;-63
2020/12/18 07:10:27;;;;;;;8.25;6.65;;;;;;;;;;5094821;28;20231;-63
2020/12/18 07:12:57;;;;;;;16.38;7.80;;;;;;;;;;5094614;28;20702;-62
2020/12/18 07:15:27;;;;;;;12.15;7.70;;;;;;;;;;5094804;28;20295;-63
2020/12/18 07:17:55;;;;;;;7.35;6.40;;;;;;;;;;5095085;28;20197;-61
2020/12/18 07:20:25;;;;;;;7.30;6.05;;;;;;;;;;5095051;28;20220;-62
2020/12/18 07:22:52;;;;;;;12.77;7.32;;;;;;;;;;5095097;28;20196;-62
2020/12/18 07:25:19;;;;;;;8.63;6.90;;;;;;;;;;5095327;28;20204;-62
2020/12/18 07:27:47;;;;;;;11.38;6.63;;;;;;;;;;5095855;28;20201;-62
2020/12/18 07:30:13;;;;;;;8.80;7.40;;;;;;;;;;5095115;28;20217;-62
2020/12/18 07:32:42;;;;;;;9.05;7.07;;;;;;;;;;5095509;28;20212;-61
2020/12/18 07:35:09;;;;;;;9.45;6.97;;;;;;;;;;5094940;28;20245;-62
2020/12/18 07:37:36;;;;;;;10.65;6.10;;;;;;;;;;5094625;28;20496;-62
2020/12/18 07:40:04;;;;;;;8.60;7.28;;;;;;;;;;5093978;28;20216;-62
2020/12/18 07:42:32;;;;;;;9.25;6.80;;;;;;;;;;5094551;28;20236;-62
2020/12/18 07:45:06;;;;;;;11.13;7.03;;;;;;;;;;5095161;28;20233;-63
2020/12/18 07:47:34;;;;;;;9.60;6.40;;;;;;;;;;5095922;28;20589;-63
2020/12/18 07:50:02;;;;;;;9.52;7.35;;;;;;;;;;5098225;28;20232;-62
2020/12/18 07:52:29;;;;;;;8.93;6.50;;;;;;;;;;5099813;28;20204;-62
2020/12/18 07:54:56;;;;;;;7.85;6.13;;;;;;;;;;5098636;28;20207;-63
2020/12/18 07:57:23;;;;;;;8.02;6.60;;;;;;;;;;5096033;28;20196;-62
2020/12/18 07:59:49;;;;;;;12.45;7.13;;;;;;;;;;5094501;28;20663;-61
2020/12/18 08:02:24;;;;;;;9.13;7.05;;;;;;;;;;5095806;28;20547;-62
2020/12/18 08:05:00;;;;;;;7.80;6.45;;;;;;;;;;5095713;28;20207;-60
2020/12/18 08:07:28;;;;;;;9.07;6.95;;;;;;;;;;5094876;28;20277;-62
2020/12/18 08:10:01;;;;;;;10.18;6.60;;;;;;;;;;5094395;28;20203;-62
2020/12/18 08:12:31;;;;;;;10.70;7.20;;;;;;;;;;5093778;28;20204;-62
2020/12/18 08:15:08;;;;;;;10.75;6.95;;;;;;;;;;5094053;28;20192;-62
2020/12/18 08:17:35;;;;;;;9.88;7.10;;;;;;;;;;5095007;28;20204;-62
2020/12/18 08:20:03;;;;;;;7.70;6.80;;;;;;;;;;5094751;28;20309;-60
2020/12/18 08:22:33;;;;;;;8.77;6.95;;;;;;;;;;5094376;28;20207;-62
2020/12/18 08:25:01;;;;;;;10.93;7.20;;;;;;;;;;5093757;28;20318;-62
2020/12/18 08:27:29;;;;;;;11.80;7.03;;;;;;;;;;5093516;28;20297;-62
2020/12/18 08:29:56;;;;;;;10.43;7.03;;;;;;;;;;5093973;28;20204;-62
2020/12/18 08:32:27;;;;;;;8.40;6.03;;;;;;;;;;5093673;28;20208;-62
2020/12/18 08:34:59;;;;;;;9.40;5.65;;;;;;;;;;5094117;28;20196;-61
2020/12/18 08:37:25;;;;;;;10.02;6.97;;;;;;;;;;5094767;28;20176;-61
2020/12/18 08:39:53;;;;;;;10.30;7.43;;;;;;;;;;5093782;28;20618;-60
2020/12/18 08:42:20;;;;;;;8.60;6.93;;;;;;;;;;5094360;28;20211;-61
2020/12/18 08:44:47;;;;;;;9.93;7.72;;;;;;;;;;5094990;28;20215;-61
2020/12/18 08:47:21;;;;;;;11.15;6.60;;;;;;;;;;5093643;28;20212;-60
2020/12/18 08:49:47;;;;;;;8.50;6.50;;;;;;;;;;5093965;28;20206;-61
2020/12/18 08:52:14;;;;;;;7.53;6.65;;;;;;;;;;5094406;28;20227;-60
2020/12/18 08:54:42;;;;;;;7.40;6.07;;;;;;;;;;5097593;28;20200;-61
2020/12/18 08:57:17;;;;;;;11.60;6.70;;;;;;;;;;5107892;28;20346;-61
2020/12/18 08:59:58;;;;;;;12.20;7.25;;;;;;;;;;5111204;28;20188;-61
2020/12/18 09:02:25;;;;;;;8.30;6.88;;;;;;;;;;5108602;28;20577;-60
2020/12/18 09:05:24;;;;;;;8.45;7.00;;;;;;;;;;5108498;28;20217;-60
2020/12/18 09:07:52;;;;;;;8.18;6.40;;;;;;;;;;5038867;28;20214;-60
2020/12/18 09:10:29;;;;;;;12.65;7.03;;;;;;;;;;5037487;28;20218;-60
2020/12/18 09:12:57;;;;;;;11.85;7.25;;;;;;;;;;5068899;28;20222;-60
2020/12/18 09:15:24;;;;;;;13.32;7.00;;;;;;;;;;5097848;28;20200;-60
2020/12/18 09:18:01;;;;;;;8.40;6.07;;;;;;;;;;5097674;28;20627;-60
2020/12/18 09:20:28;;;;;;;10.02;7.22;;;;;;;;;;5097507;28;20216;-60
2020/12/18 09:22:56;;;;;;;7.95;6.90;;;;;;;;;;5097919;28;20302;-61
2020/12/18 09:25:23;;;;;;;12.13;6.70;;;;;;;;;;5098474;28;20200;-60
2020/12/18 09:27:57;;;;;;;13.68;6.65;;;;;;;;;;5098469;28;20212;-60
2020/12/18 09:30:25;;;;;;;11.52;6.40;;;;;;;;;;5097024;28;20220;-61
2020/12/18 09:33:23;;;;;;;10.88;7.07;;;;;;;;;;5097107;28;20230;-60
2020/12/18 09:35:50;;;;;;;9.57;6.30;;;;;;;;;;5035136;28;20221;-60
2020/12/18 09:38:21;;;;;;;8.57;7.63;;;;;;;;;;5083541;28;20200;-61
2020/12/18 09:40:48;;;;;;;12.38;7.10;;;;;;;;;;5099549;28;20216;-61
2020/12/18 09:43:16;;;;;;;9.63;7.07;;;;;;;;;;5097617;28;20571;-61
2020/12/18 09:45:43;;;;;;;7.25;6.55;;;;;;;;;;5097456;28;20249;-61
2020/12/18 09:48:09;;;;;;;9.38;6.45;;;;;;;;;;5096950;28;20201;-60
2020/12/18 09:50:36;;;;;;;8.23;6.35;;;;;;;;;;5097411;28;20225;-60
2020/12/18 09:53:04;;;;;;;9.35;6.55;;;;;;;;;;5104296;28;20200;-60
2020/12/18 09:55:31;;;;;;;9.35;6.20;;;;;;;;;;5104612;28;20225;-60
2020/12/18 09:57:57;;;;;;;9.13;7.13;;;;;;;;;;5102819;28;20231;-61
2020/12/18 10:00:25;;;;;;;9.32;8.10;;;;;;;;;;5101873;28;20231;-61
2020/12/18 10:02:52;;;;;;;8.73;6.70;;;;;;;;;;5103214;28;20200;-61
2020/12/18 10:05:19;;;;;;;7.72;6.00;;;;;;;;;;5102651;28;20200;-61
2020/12/18 10:07:45;;;;;;;12.98;6.75;;;;;;;;;;5105270;28;20230;-61
2020/12/18 10:10:12;;;;;;;9.63;6.70;;;;;;;;;;5095749;28;20220;-62
2020/12/18 10:12:39;;;;;;;8.95;6.47;;;;;;;;;;5096205;28;20218;-62
2020/12/18 10:15:05;;;;;;;9.07;6.30;;;;;;;;;;5095703;28;20617;-61
2020/12/18 10:17:33;;;;;;;8.55;6.63;;;;;;;;;;5095451;28;20201;-61
2020/12/18 10:20:00;;;;;;;11.00;6.55;;;;;;;;;;5095548;28;20216;-60
2020/12/18 10:22:26;;;;;;;7.13;6.32;;;;;;;;;;5096007;28;20200;-61
2020/12/18 10:24:53;;;;;;;8.75;6.93;;;;;;;;;;5095673;28;20258;-61
2020/12/18 10:27:20;;;;;;;12.40;7.05;;;;;;;;;;5095044;28;20216;-61
2020/12/18 10:29:47;;;;;;;9.25;7.38;;;;;;;;;;5095376;28;20288;-61
2020/12/18 10:32:13;;;;;;;8.10;6.97;;;;;;;;;;5094965;28;20672;-61
2020/12/18 10:34:41;;;;;;;7.07;6.22;;;;;;;;;;5095621;28;20259;-61
2020/12/18 10:37:08;;;;;;;8.70;6.10;;;;;;;;;;5096550;28;20200;-60
2020/12/18 10:39:34;;;;;;;9.30;6.30;;;;;;;;;;5098098;28;20256;-60
2020/12/18 10:42:05;;;;;;;10.80;6.13;;;;;;;;;;5098168;28;20297;-61
2020/12/18 10:44:32;;;;;;;7.07;6.38;;;;;;;;;;5097782;28;20259;-62
2020/12/18 10:46:59;;;;;;;9.60;5.95;;;;;;;;;;5098169;28;20256;-60
2020/12/18 10:49:26;;;;;;;7.63;6.75;;;;;;;;;;5095923;28;20196;-62
2020/12/18 10:51:54;;;;;;;9.48;6.30;;;;;;;;;;5096395;28;20224;-61
2020/12/18 10:54:20;;;;;;;6.53;5.47;;;;;;;;;;5104441;28;20201;-62
2020/12/18 10:56:50;;;;;;;10.98;6.10;;;;;;;;;;5107289;28;20197;-62
2020/12/18 10:59:17;;;;;;;6.25;5.18;;;;;;;;;;5104273;28;20263;-62
2020/12/18 11:01:43;;;;;;;7.50;5.20;;;;;;;;;;5097277;28;20224;-62
2020/12/18 11:04:10;;;;;;;7.47;5.18;;;;;;;;;;5095739;28;20204;-60
2020/12/18 11:06:38;;;;;;;6.40;4.40;;;;;;;;;;5095084;28;20715;-61
2020/12/18 11:09:07;;;;;;;6.13;5.07;;;;;;;;;;5094690;28;20635;-61
2020/12/18 11:11:34;;;;;;;5.25;4.30;;;;;;;;;;5094944;28;20293;-62
2020/12/18 11:14:01;;;;;;;8.43;5.35;;;;;;;;;;5095081;28;20242;-62
2020/12/18 11:16:28;;;;;;;6.90;4.75;;;;;;;;;;5094370;28;20219;-61
2020/12/18 11:18:54;;;;;;;4.90;4.50;;;;;;;;;;5095292;28;20222;-62
2020/12/18 11:21:21;;;;;;;5.43;4.72;;;;;;;;;;5095416;28;20250;-62
2020/12/18 11:23:48;;;;;;;7.13;6.03;;;;;;;;;;5095824;28;20273;-61
2020/12/18 11:26:15;;;;;;;5.22;4.72;;;;;;;;;;5094648;28;20216;-62
2020/12/18 11:28:42;;;;;;;8.48;5.28;;;;;;;;;;5095824;28;20196;-61
2020/12/18 11:31:09;;;;;;;8.63;4.90;;;;;;;;;;5095214;28;20223;-63
2020/12/18 11:33:36;;;;;;;5.32;4.60;;;;;;;;;;5096095;28;20566;-61
2020/12/18 11:36:02;;;;;;;5.30;4.70;;;;;;;;;;5095896;28;20215;-60
2020/12/18 11:38:29;;;;;;;6.53;4.00;;;;;;;;;;5095348;28;20253;-61
2020/12/18 11:40:56;;;;;;;8.10;5.53;;;;;;;;;;5096216;28;20220;-61
2020/12/18 11:43:24;;;;;;;6.88;4.25;;;;;;;;;;5096613;28;20211;-61
2020/12/18 11:45:51;;;;;;;6.78;4.45;;;;;;;;;;5095645;28;20230;-61
2020/12/18 11:48:17;;;;;;;5.25;3.88;;;;;;;;;;5095426;28;20204;-61
2020/12/18 11:50:44;;;;;;;7.70;5.27;;;;;;;;;;5095583;28;20216;-62
2020/12/18 11:53:11;;;;;;;5.90;4.05;;;;;;;;;;5095206;28;20499;-62
2020/12/18 11:55:37;;;;;;;6.05;3.70;;;;;;;;;;5094881;28;20200;-63
2020/12/18 11:58:04;;;;;;;9.97;4.10;;;;;;;;;;5093994;28;20196;-62
2020/12/18 12:00:32;;;;;;;5.05;3.50;;;;;;;;;;5094628;28;20462;-60
2020/12/18 12:02:59;;;;;;;5.90;4.22;;;;;;;;;;5094451;28;20204;-63
2020/12/18 12:05:25;;;;;;;5.60;3.60;;;;;;;;;;5094131;28;20215;-61
2020/12/18 12:07:53;;;;;;;7.35;4.13;;;;;;;;;;5094334;28;20500;-61
2020/12/18 12:10:20;;;;;;;6.47;4.50;;;;;;;;;;5093610;28;20224;-61
2020/12/18 12:12:47;;;;;;;13.50;4.60;;;;;;;;;;5094093;28;20458;-60
2020/12/18 12:15:14;;;;;;;5.17;3.20;;;;;;;;;;5097814;28;20449;-60
2020/12/18 12:17:41;;;;;;;3.55;3.05;;;;;;;;;;5098959;28;20442;-60
2020/12/18 12:20:08;;;;;;;8.53;3.37;;;;;;;;;;5098400;28;20232;-61
2020/12/18 12:22:35;;;;;;;4.90;3.40;;;;;;;;;;5101130;28;20520;-61
2020/12/18 12:25:01;;;;;;;5.57;3.50;;;;;;;;;;5102615;28;20454;-62
2020/12/18 12:27:28;;;;;;;5.63;4.00;;;;;;;;;;5103209;28;20476;-62
2020/12/18 12:29:55;;;;;;;5.90;3.47;;;;;;;;;;5107627;28;20438;-61
2020/12/18 12:32:22;;;;;;;5.53;4.73;;;;;;;;;;5108095;28;20770;-61
2020/12/18 12:34:50;;;;;;;6.40;3.67;;;;;;;;;;5107678;28;20450;-61
2020/12/18 12:37:16;;;;;;;5.37;3.80;;;;;;;;;;5106485;28;20446;-61
2020/12/18 12:39:44;;;;;;;4.03;3.60;;;;;;;;;;5106663;28;20446;-61
2020/12/18 12:42:10;;;;;;;4.43;3.07;;;;;;;;;;5107516;28;20442;-61
2020/12/18 12:44:37;;;;;;;6.93;3.28;;;;;;;;;;5105225;28;20929;-61
2020/12/18 12:47:04;;;;;;;3.60;2.70;;;;;;;;;;5107560;28;20227;-61
2020/12/18 12:49:31;;;;;;;4.57;3.37;;;;;;;;;;5105241;28;20446;-63
2020/12/18 12:51:59;;;;;;;4.25;3.35;;;;;;;;;;5104555;28;20470;-69
2020/12/18 12:54:26;;;;;;;5.97;2.92;;;;;;;;;;5101813;28;20211;-66
2020/12/18 12:56:53;;;;;;;7.68;3.65;;;;;;;;;;5099334;28;20275;-65
2020/12/18 12:59:20;;;;;;;9.13;3.67;;;;;;;;;;5099743;28;20207;-65
2020/12/18 13:01:47;;;;;;;3.90;3.42;;;;;;;;;;5100234;28;20536;-64
2020/12/18 13:04:14;;;;;;;5.82;3.63;;;;;;;;;;5099691;28;20262;-64
2020/12/18 13:06:41;;;;;;;5.45;3.90;;;;;;;;;;5100277;28;20277;-64
2020/12/18 13:09:09;;;;;;;5.60;3.00;;;;;;;;;;5098823;28;20207;-66
2020/12/18 13:11:37;;;;;;;5.63;3.17;;;;;;;;;;5097188;28;20518;-65
2020/12/18 13:14:04;;;;;;;6.83;2.97;;;;;;;;;;5096719;28;20794;-65
2020/12/18 13:16:31;;;;;;;4.37;3.67;;;;;;;;;;5096778;28;20523;-65
2020/12/18 13:18:58;;;;;;;4.73;3.10;;;;;;;;;;5098037;28;20529;-63
2020/12/18 13:21:28;;;;;;;5.33;3.47;;;;;;;;;;5097231;28;20469;-64
2020/12/18 13:23:55;;;;;;;7.30;3.70;;;;;;;;;;5097123;28;20923;-65
2020/12/18 13:26:23;;;;;;;8.83;3.97;;;;;;;;;;5096655;28;20474;-66
2020/12/18 13:28:49;;;;;;;8.70;5.77;;;;;;;;;;5096561;28;20454;-64
2020/12/18 13:31:16;;;;;;;6.70;4.20;;;;;;;;;;5097443;28;20466;-63
2020/12/18 13:33:43;;;;;;;4.20;3.10;;;;;;;;;;5097533;28;20443;-64
2020/12/18 13:36:10;;;;;;;7.33;3.63;;;;;;;;;;5097447;28;20457;-62
2020/12/18 13:38:37;;;;;;;3.60;2.70;;;;;;;;;;5095648;28;20811;-62
2020/12/18 13:41:03;;;;;;;5.43;3.30;;;;;;;;;;5095884;28;21032;-63
2020/12/18 13:43:31;;;;;;;5.28;3.10;;;;;;;;;;5095926;28;20200;-65
2020/12/18 13:45:58;;;;;;;6.33;2.97;;;;;;;;;;5095548;28;20257;-63
2020/12/18 13:48:25;;;;;;;8.57;3.43;;;;;;;;;;5096589;28;20553;-62
2020/12/18 13:50:51;;;;;;;8.20;3.40;;;;;;;;;;5095947;28;20462;-63
2020/12/18 13:53:18;;;;;;;4.43;3.00;;;;;;;;;;5096820;28;20258;-65
2020/12/18 13:55:48;;;;;;;6.57;3.28;;;;;;;;;;5096556;28;20640;-66
2020/12/18 13:58:15;;;;;;;5.03;3.67;;;;;;;;;;5096812;28;20568;-63
2020/12/18 14:00:44;;;;;;;4.88;3.10;;;;;;;;;;5097244;28;20307;-63
2020/12/18 14:03:10;;;;;;;4.05;3.28;;;;;;;;;;5097089;28;20204;-65
2020/12/18 14:05:37;;;;;;;5.43;2.93;;;;;;;;;;5096644;28;20257;-63
2020/12/18 14:08:04;;;;;;;5.65;2.80;;;;;;;;;;5096716;28;20474;-63
2020/12/18 14:10:31;;;;;;;6.00;2.80;;;;;;;;;;5099763;28;20315;-61
2020/12/18 14:12:58;;;;;;;3.67;2.58;;;;;;;;;;5096073;28;20730;-64
2020/12/18 14:15:24;;;;;;;3.90;2.60;;;;;;;;;;5095777;28;20571;-62
2020/12/18 14:17:52;;;;;;;6.68;3.70;;;;;;;;;;5095219;28;20889;-63
2020/12/18 14:20:19;;;;;;;6.32;3.00;;;;;;;;;;5095759;28;20223;-62
2020/12/18 14:22:46;;;;;;;4.38;2.90;;;;;;;;;;5095618;28;20295;-62
2020/12/18 14:25:13;;;;;;;4.00;3.60;;;;;;;;;;5095730;28;20303;-63
2020/12/18 14:27:40;;;;;;;3.20;2.60;;;;;;;;;;5095472;28;20678;-64
2020/12/18 14:30:07;;;;;;;4.95;3.10;;;;;;;;;;5095804;28;20224;-63
2020/12/18 14:32:34;;;;;;;5.25;3.20;;;;;;;;;;5095676;28;20200;-64
2020/12/18 14:35:02;;;;;;;4.75;3.25;;;;;;;;;;5095616;28;20208;-62
2020/12/18 14:37:29;;;;;;;3.72;2.70;;;;;;;;;;5095174;28;20196;-63
2020/12/18 14:39:56;;;;;;;4.35;3.05;;;;;;;;;;5095709;28;20564;-62
2020/12/18 14:42:22;;;;;;;5.38;3.47;;;;;;;;;;5096098;28;20234;-61
2020/12/18 14:44:49;;;;;;;5.10;4.35;;;;;;;;;;5096575;28;20224;-62
2020/12/18 14:47:16;;;;;;;6.13;4.32;;;;;;;;;;5096204;28;20223;-60